Terminal Aerodrome Forecast
Issued by NWS

Home | Current Version | Previous Version | Text Only | Print | Product List | Glossary On
Versions: 1 2 3 4 5 6 7 8 9 10 11 12 13 14
820
FTUS41 KCAR 231136 AAA
TAFBHB
TAF AMD
KBHB 231136Z 2312/2412 00000KT P6SM SCT008 BKN060
     FM231600 00000KT P6SM VCSH BKN050
     FM231800 24005KT 5SM -SHRA OVC040
      TEMPO 2318/2321 31015G25KT 2SM TSRA OVC015CB
     FM232200 32010G16KT P6SM VCSH BKN070
     FM240000 36009G15KT P6SM SCT080=

USA.gov is the U.S. government's official web portal to all federal, state and local government web resources and services.